createdAt,value
2018-12-11T00:02:17.842Z,3.87
2018-12-11T00:04:49.994Z,4.25
2018-12-11T00:07:20.231Z,3.75
2018-12-11T00:09:50.445Z,4.03
2018-12-11T00:12:20.527Z,4.10
2018-12-11T00:14:50.712Z,4.58
2018-12-11T00:17:20.917Z,4.12
2018-12-11T00:19:51.039Z,4.00
2018-12-11T00:22:21.215Z,5.30
2018-12-11T00:24:51.346Z,4.40
2018-12-11T00:27:21.476Z,5.03
2018-12-11T00:29:51.658Z,4.25
2018-12-11T00:32:22.849Z,4.67
2018-12-11T00:34:52.987Z,4.03
2018-12-11T00:37:23.153Z,4.08
2018-12-11T00:39:53.527Z,4.45
2018-12-11T00:42:23.737Z,3.62
2018-12-11T00:44:53.893Z,4.12
2018-12-11T00:47:24.058Z,3.70
2018-12-11T00:49:54.211Z,3.20
2018-12-11T00:52:24.328Z,3.95
2018-12-11T00:54:54.409Z,3.10
2018-12-11T00:57:24.546Z,3.60
2018-12-11T00:59:54.633Z,3.25
2018-12-11T01:02:24.924Z,3.20
2018-12-11T01:04:55.221Z,2.77
2018-12-11T01:07:25.321Z,3.00
2018-12-11T01:09:56.409Z,2.55
2018-12-11T01:12:26.637Z,3.15
2018-12-11T01:14:56.767Z,2.58
2018-12-11T01:17:26.832Z,2.80
2018-12-11T01:19:56.953Z,2.70
2018-12-11T01:22:27.129Z,3.00
2018-12-11T01:24:57.273Z,2.58
2018-12-11T01:27:27.441Z,2.90
2018-12-11T01:29:57.609Z,2.50
2018-12-11T01:32:27.736Z,3.00
2018-12-11T01:34:57.881Z,2.80
2018-12-11T01:37:28.049Z,2.72
2018-12-11T01:39:58.244Z,2.60
2018-12-11T01:42:28.449Z,2.77
2018-12-11T01:44:58.586Z,2.70
2018-12-11T01:47:28.728Z,3.15
2018-12-11T01:49:58.917Z,3.12
2018-12-11T01:52:29.054Z,2.90
2018-12-11T01:54:59.215Z,3.08
2018-12-11T01:57:29.334Z,2.95
2018-12-11T01:59:59.576Z,2.83
2018-12-11T02:02:29.775Z,2.90
2018-12-11T02:04:59.892Z,3.47
2018-12-11T02:07:30.053Z,2.27
2018-12-11T02:10:00.225Z,2.60
2018-12-11T02:12:30.357Z,2.90
2018-12-11T02:15:00.509Z,2.58
2018-12-11T02:17:30.690Z,2.85
2018-12-11T02:20:00.794Z,2.20
2018-12-11T02:22:30.961Z,2.92
2018-12-11T02:25:01.067Z,2.17
2018-12-11T02:27:38.048Z,2.35
2018-12-11T02:30:08.461Z,2.80
2018-12-11T02:32:38.981Z,2.62
2018-12-11T02:35:09.149Z,2.50
2018-12-11T02:37:39.325Z,2.17
2018-12-11T02:40:09.483Z,2.40
2018-12-11T02:42:39.645Z,2.20
2018-12-11T02:45:10.035Z,2.30
2018-12-11T02:47:40.195Z,2.15
2018-12-11T02:50:10.585Z,3.05
2018-12-11T02:52:40.672Z,2.80
2018-12-11T02:55:11.057Z,2.65
2018-12-11T02:57:41.167Z,2.60
2018-12-11T03:00:11.585Z,2.37
2018-12-11T03:02:42.759Z,2.60
2018-12-11T03:05:13.244Z,2.60
2018-12-11T03:07:43.706Z,2.60
2018-12-11T03:10:13.873Z,2.67
2018-12-11T03:12:44.060Z,2.55
2018-12-11T03:15:14.275Z,2.85
2018-12-11T03:17:44.412Z,2.50
2018-12-11T03:20:14.540Z,2.75
2018-12-11T03:22:44.663Z,2.85
2018-12-11T03:25:14.807Z,2.10
2018-12-11T03:27:45.065Z,2.50
2018-12-11T03:33:32.529Z,2.58
2018-12-11T03:36:02.605Z,3.52
2018-12-11T03:38:32.740Z,2.35
2018-12-11T03:41:03.078Z,2.60
2018-12-11T03:43:33.231Z,2.50
2018-12-11T03:46:03.343Z,2.20
2018-12-11T03:48:33.555Z,3.00
2018-12-11T03:51:03.764Z,2.60
2018-12-11T03:53:33.919Z,2.65
2018-12-11T03:56:04.144Z,2.35
2018-12-11T03:58:34.401Z,2.75
2018-12-11T04:01:04.545Z,2.47
2018-12-11T04:03:34.708Z,2.45
2018-12-11T04:06:04.812Z,2.25
2018-12-11T04:08:34.918Z,2.77
2018-12-11T04:11:05.092Z,2.67
2018-12-11T04:13:35.221Z,3.00
2018-12-11T04:16:05.439Z,2.72
2018-12-11T04:18:35.596Z,2.22
2018-12-11T04:21:05.873Z,2.80
2018-12-11T04:23:35.962Z,2.83
2018-12-11T04:26:06.181Z,2.72
2018-12-11T04:28:38.899Z,2.80
2018-12-11T04:31:09.028Z,3.42
2018-12-11T04:33:39.165Z,2.95
2018-12-11T04:36:15.994Z,2.65
2018-12-11T04:38:46.105Z,3.12
2018-12-11T04:41:16.212Z,2.67
2018-12-11T04:43:46.325Z,2.90
2018-12-11T04:46:16.461Z,2.58
2018-12-11T04:48:46.627Z,2.50
2018-12-11T04:51:16.789Z,2.77
2018-12-11T04:53:46.930Z,2.75
2018-12-11T04:56:17.053Z,2.85
2018-12-11T04:58:47.168Z,2.40
2018-12-11T05:01:17.304Z,2.98
2018-12-11T05:03:47.372Z,2.50
2018-12-11T05:06:18.071Z,2.90
2018-12-11T05:08:48.170Z,3.70
2018-12-11T05:11:18.303Z,3.45
2018-12-11T05:13:48.425Z,2.67
2018-12-11T05:16:18.616Z,3.55
2018-12-11T05:18:48.817Z,4.10
2018-12-11T05:21:18.989Z,2.95
2018-12-11T05:23:49.119Z,3.40
2018-12-11T05:26:19.327Z,3.47
2018-12-11T05:28:49.477Z,3.77
2018-12-11T05:31:21.723Z,3.02
2018-12-11T05:33:51.858Z,3.45
2018-12-11T05:36:21.954Z,2.67
2018-12-11T05:38:52.268Z,3.42
2018-12-11T05:41:22.395Z,3.22
2018-12-11T05:43:52.641Z,3.40
2018-12-11T05:46:22.781Z,3.10
2018-12-11T05:48:52.937Z,2.65
2018-12-11T05:51:23.066Z,3.62
2018-12-11T05:53:53.198Z,3.27
2018-12-11T05:56:23.341Z,3.50
2018-12-11T05:58:53.490Z,3.02
2018-12-11T06:01:23.638Z,4.12
2018-12-11T06:03:53.904Z,3.72
2018-12-11T06:06:25.629Z,3.05
2018-12-11T06:08:55.762Z,2.98
2018-12-11T06:11:25.889Z,3.60
2018-12-11T06:13:56.036Z,4.00
2018-12-11T06:16:27.358Z,3.77
2018-12-11T06:18:57.472Z,3.75
2018-12-11T06:21:27.649Z,3.80
2018-12-11T06:23:57.746Z,3.10
2018-12-11T06:26:27.922Z,3.75
2018-12-11T06:28:58.067Z,3.08
2018-12-11T06:31:28.237Z,3.75
2018-12-11T06:33:58.329Z,4.22
2018-12-11T06:36:28.568Z,3.55
2018-12-11T06:38:58.708Z,4.22
2018-12-11T06:41:28.856Z,3.50
2018-12-11T06:43:59.023Z,3.25
2018-12-11T06:46:29.382Z,3.33
2018-12-11T06:48:59.594Z,3.40
2018-12-11T06:51:29.778Z,5.08
2018-12-11T06:53:59.862Z,3.33
2018-12-11T06:56:30.033Z,4.60
2018-12-11T06:59:00.140Z,4.40
2018-12-11T07:01:30.301Z,4.92
2018-12-11T07:04:00.472Z,6.00
2018-12-11T07:06:30.677Z,5.00
2018-12-11T07:09:00.953Z,3.83
2018-12-11T07:11:33.048Z,4.22
2018-12-11T07:14:03.189Z,3.90
2018-12-11T07:16:33.523Z,3.87
2018-12-11T07:19:03.801Z,4.37
2018-12-11T07:21:34.008Z,3.62
2018-12-11T07:24:04.361Z,3.20
2018-12-11T07:26:34.579Z,4.25
2018-12-11T07:29:04.769Z,4.35
2018-12-11T07:31:34.950Z,3.47
2018-12-11T07:34:05.296Z,3.70
2018-12-11T07:36:35.590Z,3.95
2018-12-11T07:39:07.830Z,3.60
2018-12-11T07:41:38.400Z,4.35
2018-12-11T07:44:08.805Z,3.50
2018-12-11T07:46:39.038Z,3.52
2018-12-11T07:49:09.118Z,3.67
2018-12-11T07:51:39.427Z,4.20
2018-12-11T07:54:09.584Z,4.60
2018-12-11T07:56:39.721Z,4.00
2018-12-11T07:59:09.810Z,3.77
2018-12-11T08:01:39.976Z,4.12
2018-12-11T08:04:10.217Z,3.98
2018-12-11T08:06:40.643Z,3.60
2018-12-11T08:09:10.823Z,4.33
2018-12-11T08:11:40.966Z,4.37
2018-12-11T08:14:11.070Z,4.20
2018-12-11T08:16:41.302Z,4.00
2018-12-11T08:19:11.859Z,6.15
2018-12-11T08:21:41.967Z,3.77
2018-12-11T08:24:12.228Z,4.35
2018-12-11T08:26:43.528Z,4.08
2018-12-11T08:29:13.698Z,4.12
2018-12-11T08:31:43.783Z,3.77
2018-12-11T08:34:15.055Z,3.12
2018-12-11T08:36:45.173Z,3.65
2018-12-11T08:39:15.328Z,3.35
2018-12-11T08:41:45.472Z,3.85
2018-12-11T08:44:15.629Z,4.10
2018-12-11T08:46:45.777Z,3.58
2018-12-11T08:49:15.910Z,4.00
2018-12-11T08:51:46.058Z,3.87
2018-12-11T08:54:16.233Z,4.80
2018-12-11T08:56:46.391Z,3.30
2018-12-11T08:59:16.537Z,3.83
2018-12-11T09:01:46.652Z,3.37
2018-12-11T09:04:16.811Z,4.28
2018-12-11T09:06:46.933Z,4.35
2018-12-11T09:09:17.036Z,3.70
2018-12-11T09:11:47.208Z,4.00
2018-12-11T09:14:17.351Z,3.55
2018-12-11T09:16:47.515Z,3.20
2018-12-11T09:19:17.663Z,4.00
2018-12-11T09:21:47.820Z,4.15
2018-12-11T09:24:17.938Z,3.65
2018-12-11T09:26:51.441Z,4.20
2018-12-11T09:29:21.702Z,3.98
2018-12-11T09:31:51.885Z,3.87
2018-12-11T09:34:22.089Z,4.47
2018-12-11T09:36:52.212Z,4.00
2018-12-11T09:39:22.377Z,3.95
2018-12-11T09:41:52.491Z,5.92
2018-12-11T09:44:22.615Z,4.10
2018-12-11T09:46:52.718Z,3.33
2018-12-11T09:49:22.997Z,4.62
2018-12-11T09:51:53.100Z,3.90
2018-12-11T09:54:23.255Z,3.42
2018-12-11T09:56:53.471Z,3.92
2018-12-11T09:59:23.754Z,3.87
2018-12-11T10:01:54.103Z,3.65
2018-12-11T10:04:24.285Z,3.12
2018-12-11T10:06:54.486Z,3.72
2018-12-11T10:09:24.631Z,3.92
2018-12-11T10:11:54.752Z,3.90
2018-12-11T10:14:24.960Z,4.45
2018-12-11T10:16:55.189Z,3.55
2018-12-11T10:19:25.344Z,3.98
2018-12-11T10:21:55.454Z,3.83
2018-12-11T10:24:25.737Z,4.67
2018-12-11T10:26:55.967Z,3.83
2018-12-11T10:29:26.149Z,4.42
2018-12-11T10:31:56.275Z,3.62
2018-12-11T10:34:26.492Z,4.08
2018-12-11T10:36:56.664Z,3.83
2018-12-11T10:39:26.875Z,3.90
2018-12-11T10:41:57.036Z,2.72
2018-12-11T10:44:27.257Z,3.55
2018-12-11T10:46:57.488Z,3.98
2018-12-11T10:49:27.883Z,3.77
2018-12-11T10:51:58.156Z,4.95
2018-12-11T10:54:28.310Z,3.80
2018-12-11T10:56:58.565Z,4.05
2018-12-11T10:59:28.733Z,4.85
2018-12-11T11:04:48.059Z,4.20
2018-12-11T11:07:18.182Z,3.90
2018-12-11T11:09:48.352Z,3.87
2018-12-11T11:12:18.548Z,4.10
2018-12-11T11:14:48.722Z,3.83
2018-12-11T11:17:18.893Z,4.85
2018-12-11T11:19:49.029Z,3.77
2018-12-11T11:22:19.146Z,3.60
2018-12-11T11:24:49.347Z,3.80
2018-12-11T11:27:20.509Z,3.98
2018-12-11T11:29:50.670Z,4.35
2018-12-11T11:32:20.878Z,4.85
2018-12-11T11:34:50.973Z,4.55
2018-12-11T11:37:21.142Z,4.25
2018-12-11T11:39:51.218Z,4.35
2018-12-11T11:42:21.527Z,4.00
2018-12-11T11:44:51.992Z,4.00
2018-12-11T11:47:24.405Z,3.90
2018-12-11T11:49:54.607Z,4.10
2018-12-11T11:52:24.725Z,3.60
2018-12-11T11:54:54.829Z,4.28
2018-12-11T11:57:29.715Z,4.08
2018-12-11T11:59:57.268Z,3.70
2018-12-11T12:02:33.230Z,3.62
2018-12-11T12:04:59.496Z,4.85
2018-12-11T12:07:29.649Z,6.42
2018-12-11T12:10:01.732Z,4.35
2018-12-11T12:12:33.031Z,4.75
2018-12-11T12:15:03.065Z,3.45
2018-12-11T12:17:33.207Z,2.90
2018-12-11T12:20:03.424Z,2.80
2018-12-11T12:22:33.518Z,4.05
2018-12-11T12:25:03.753Z,2.80
2018-12-11T12:27:33.914Z,3.08
2018-12-11T12:30:05.165Z,3.65
2018-12-11T12:32:35.382Z,2.50
2018-12-11T12:35:06.950Z,3.17
2018-12-11T12:37:37.068Z,3.72
2018-12-11T12:40:07.269Z,3.72
2018-12-11T12:42:37.421Z,3.25
2018-12-11T12:45:07.796Z,3.37
2018-12-11T12:47:37.834Z,4.47
2018-12-11T12:50:08.129Z,3.52
2018-12-11T12:52:38.359Z,3.95
2018-12-11T12:55:08.526Z,3.83
2018-12-11T12:57:38.690Z,3.98
2018-12-11T13:00:10.219Z,3.55
2018-12-11T13:02:40.397Z,4.55
2018-12-11T13:05:10.733Z,4.80
2018-12-11T13:07:40.873Z,4.20
2018-12-11T13:10:11.262Z,4.50
2018-12-11T13:12:41.793Z,4.30
2018-12-11T13:15:11.884Z,4.60
2018-12-11T13:17:41.985Z,5.40
2018-12-11T13:20:12.089Z,4.80
2018-12-11T13:22:42.296Z,5.05
2018-12-11T13:25:12.416Z,4.15
2018-12-11T13:27:42.613Z,4.60
2018-12-11T13:30:12.937Z,4.08
2018-12-11T13:32:43.025Z,4.05
2018-12-11T13:35:13.277Z,4.33
2018-12-11T13:37:43.317Z,5.00
2018-12-11T13:40:13.499Z,5.87
2018-12-11T13:42:43.582Z,4.90
2018-12-11T13:45:13.846Z,4.67
2018-12-11T13:47:44.292Z,3.85
2018-12-11T13:50:14.558Z,4.60
2018-12-11T13:52:44.944Z,4.00
2018-12-11T13:55:15.190Z,4.78
2018-12-11T13:57:45.333Z,4.83
2018-12-11T14:00:15.781Z,4.12
2018-12-11T14:02:46.085Z,4.10
2018-12-11T14:05:16.576Z,5.08
2018-12-11T14:07:46.843Z,3.75
2018-12-11T14:10:17.013Z,4.62
2018-12-11T14:12:47.242Z,5.12
2018-12-11T14:15:17.370Z,4.90
2018-12-11T14:17:47.544Z,5.10
2018-12-11T14:20:17.827Z,4.45
2018-12-11T14:22:47.986Z,5.60
2018-12-11T14:25:18.211Z,4.47
2018-12-11T14:27:48.662Z,7.55
2018-12-11T14:30:19.005Z,5.72
2018-12-11T14:32:49.172Z,3.75
2018-12-11T14:35:19.375Z,3.58
2018-12-11T14:37:49.638Z,3.83
2018-12-11T14:40:19.785Z,5.37
2018-12-11T14:42:49.995Z,4.92
2018-12-11T14:45:20.177Z,4.55
2018-12-11T14:47:50.289Z,4.25
2018-12-11T14:50:20.446Z,3.50
2018-12-11T14:52:52.704Z,4.72
2018-12-11T14:55:22.879Z,3.87
2018-12-11T14:57:53.051Z,4.00
2018-12-11T15:00:23.177Z,3.72
2018-12-11T15:02:53.383Z,4.10
2018-12-11T15:05:23.617Z,3.98
2018-12-11T15:07:54.107Z,4.42
2018-12-11T15:10:24.535Z,4.60
2018-12-11T15:12:54.723Z,5.33
2018-12-11T15:15:24.879Z,4.22
2018-12-11T15:17:55.088Z,5.17
2018-12-11T15:20:25.233Z,5.37
2018-12-11T15:22:55.379Z,5.03
2018-12-11T15:25:25.597Z,4.47
2018-12-11T15:27:55.838Z,6.10
2018-12-11T15:30:25.975Z,3.98
2018-12-11T15:32:56.141Z,4.25
2018-12-11T15:35:26.355Z,3.50
2018-12-11T15:37:56.521Z,4.25
2018-12-11T15:40:26.675Z,3.90
2018-12-11T15:42:57.216Z,4.33
2018-12-11T15:45:27.424Z,4.08
2018-12-11T15:47:57.556Z,4.90
2018-12-11T15:50:27.731Z,4.67
2018-12-11T15:52:57.899Z,4.50
2018-12-11T15:55:28.057Z,4.50
2018-12-11T15:57:59.243Z,5.12
2018-12-11T16:00:29.423Z,5.15
2018-12-11T16:02:59.571Z,5.45
2018-12-11T16:05:29.701Z,4.85
2018-12-11T16:08:00.071Z,5.60
2018-12-11T16:10:30.201Z,5.22
2018-12-11T16:13:00.412Z,4.70
2018-12-11T16:15:30.564Z,5.53
2018-12-11T16:18:00.843Z,6.30
2018-12-11T16:20:31.007Z,5.97
2018-12-11T16:23:01.242Z,6.53
2018-12-11T16:25:31.398Z,7.22
2018-12-11T16:28:01.573Z,5.92
2018-12-11T16:30:31.765Z,5.58
2018-12-11T16:33:02.094Z,6.12
2018-12-11T16:35:32.251Z,6.12
2018-12-11T16:38:02.531Z,6.50
2018-12-11T16:40:32.693Z,5.33
2018-12-11T16:43:02.777Z,5.97
2018-12-11T16:45:32.858Z,5.40
2018-12-11T16:48:02.957Z,5.90
2018-12-11T16:50:33.107Z,4.95
2018-12-11T16:53:03.290Z,5.25
2018-12-11T16:55:33.550Z,5.65
2018-12-11T16:58:03.900Z,5.87
2018-12-11T17:00:34.045Z,5.53
2018-12-11T17:03:04.303Z,6.20
2018-12-11T17:05:34.466Z,5.78
2018-12-11T17:08:04.872Z,9.03
2018-12-11T17:10:35.133Z,9.18
2018-12-11T17:13:11.368Z,9.65
2018-12-11T17:15:41.574Z,6.40
2018-12-11T17:18:11.845Z,8.15
2018-12-11T17:20:42.596Z,4.97
2018-12-11T17:23:12.826Z,4.87
2018-12-11T17:25:43.051Z,5.67
2018-12-11T17:28:13.163Z,6.03
2018-12-11T17:30:43.377Z,6.60
2018-12-11T17:33:13.469Z,5.20
2018-12-11T17:35:43.713Z,5.65
2018-12-11T17:38:13.845Z,7.42
2018-12-11T17:40:43.901Z,6.12
2018-12-11T17:43:14.074Z,5.72
2018-12-11T17:45:44.317Z,7.17
2018-12-11T17:48:15.085Z,6.08
2018-12-11T17:50:46.128Z,6.30
2018-12-11T17:53:16.325Z,8.33
2018-12-11T17:55:46.605Z,8.15
2018-12-11T17:58:16.879Z,8.20
2018-12-11T18:00:47.138Z,5.33
2018-12-11T18:03:17.335Z,6.60
2018-12-11T18:05:47.816Z,7.25
2018-12-11T18:08:19.192Z,7.10
2018-12-11T18:10:49.550Z,7.05
2018-12-11T18:13:19.760Z,6.83
2018-12-11T18:15:50.119Z,7.87
2018-12-11T18:18:20.255Z,6.72
2018-12-11T18:20:50.458Z,6.33
2018-12-11T18:23:20.762Z,6.33
2018-12-11T18:25:51.083Z,6.62
2018-12-11T18:28:21.231Z,6.40
2018-12-11T18:30:51.533Z,5.95
2018-12-11T18:33:21.757Z,6.83
2018-12-11T18:35:52.087Z,7.08
2018-12-11T18:38:26.160Z,6.28
2018-12-11T18:40:56.608Z,6.90
2018-12-11T18:43:26.918Z,6.40
2018-12-11T18:45:57.148Z,5.40
2018-12-11T18:48:27.573Z,5.60
2018-12-11T18:51:28.605Z,6.55
2018-12-11T18:53:58.918Z,5.60
2018-12-11T18:56:29.235Z,6.62
2018-12-11T18:59:01.574Z,7.15
2018-12-11T19:01:33.483Z,9.58
2018-12-11T19:04:06.992Z,7.92
2018-12-11T19:06:41.637Z,8.70
2018-12-11T19:09:14.348Z,7.50
2018-12-11T19:11:47.422Z,8.13
2018-12-11T19:14:18.986Z,9.00
2018-12-11T19:16:49.691Z,10.43
2018-12-11T19:19:19.893Z,8.40
2018-12-11T19:21:50.166Z,10.58
2018-12-11T19:24:32.121Z,11.85
2018-12-11T19:27:02.858Z,9.98
2018-12-11T19:29:33.822Z,9.50
2018-12-11T19:32:04.093Z,10.50
2018-12-11T19:34:36.286Z,11.90
2018-12-11T19:37:08.468Z,10.18
2018-12-11T19:39:40.676Z,9.85
2018-12-11T19:42:11.050Z,9.80
2018-12-11T19:44:41.201Z,10.55
2018-12-11T19:47:11.421Z,10.05
2018-12-11T19:49:41.685Z,8.48
2018-12-11T19:52:13.295Z,9.30
2018-12-11T19:54:43.462Z,10.20
2018-12-11T19:57:13.779Z,9.00
2018-12-11T19:59:43.955Z,9.23
2018-12-11T20:02:14.264Z,10.03
2018-12-11T20:04:44.383Z,8.75
2018-12-11T20:07:14.590Z,9.83
2018-12-11T20:09:50.112Z,9.50
2018-12-11T20:12:20.492Z,9.48
2018-12-11T20:14:52.771Z,9.83
2018-12-11T20:17:23.207Z,8.68
2018-12-11T20:19:53.488Z,8.68
2018-12-11T20:22:23.749Z,8.25
2018-12-11T20:24:54.100Z,8.48
2018-12-11T20:27:24.364Z,7.75
2018-12-11T20:29:54.630Z,11.03
2018-12-11T20:32:24.987Z,9.38
2018-12-11T20:34:55.325Z,9.40
2018-12-11T20:37:25.658Z,11.08
2018-12-11T20:39:56.147Z,10.30
2018-12-11T20:42:26.363Z,9.70
2018-12-11T20:44:56.645Z,8.50
2018-12-11T20:47:26.934Z,9.50
2018-12-11T20:49:57.157Z,12.03
2018-12-11T20:52:27.363Z,9.43
2018-12-11T20:54:57.671Z,10.28
2018-12-11T20:57:27.825Z,10.70
2018-12-11T20:59:57.994Z,10.72
2018-12-11T21:02:28.149Z,9.93
2018-12-11T21:04:58.364Z,10.28
2018-12-11T21:07:28.501Z,9.60
2018-12-11T21:09:58.709Z,9.20
2018-12-11T21:12:28.898Z,10.43
2018-12-11T21:14:59.473Z,8.60
2018-12-11T21:17:36.387Z,7.87
2018-12-11T21:20:07.735Z,8.53
2018-12-11T21:22:38.066Z,8.30
2018-12-11T21:25:08.497Z,8.23
2018-12-11T21:27:38.815Z,9.93
2018-12-11T21:30:10.884Z,9.45
2018-12-11T21:32:41.135Z,8.73
2018-12-11T21:35:11.477Z,7.95
2018-12-11T21:37:41.809Z,8.25
2018-12-11T21:40:12.048Z,8.70
2018-12-11T21:42:42.420Z,8.73
2018-12-11T21:45:12.697Z,8.93
2018-12-11T21:47:42.972Z,8.65
2018-12-11T21:50:13.491Z,8.58
2018-12-11T21:52:43.747Z,7.90
2018-12-11T21:55:14.611Z,8.13
2018-12-11T21:57:44.863Z,8.95
2018-12-11T22:00:15.055Z,8.25
2018-12-11T22:02:45.457Z,9.40
2018-12-11T22:05:15.790Z,8.10
2018-12-11T22:07:45.988Z,8.90
2018-12-11T22:10:16.143Z,8.73
2018-12-11T22:12:46.525Z,8.60
2018-12-11T22:15:16.685Z,9.70
2018-12-11T22:17:46.822Z,8.03
2018-12-11T22:20:17.066Z,8.58
2018-12-11T22:22:47.241Z,9.43
2018-12-11T22:25:17.364Z,8.43
2018-12-11T22:27:47.513Z,8.45
2018-12-11T22:30:17.639Z,8.13
2018-12-11T22:32:47.865Z,8.60
2018-12-11T22:35:18.048Z,8.10
2018-12-11T22:37:48.189Z,9.13
2018-12-11T22:40:18.375Z,8.55
2018-12-11T22:42:48.521Z,8.90
2018-12-11T22:45:20.124Z,7.92
2018-12-11T22:47:50.647Z,8.90
2018-12-11T22:50:20.786Z,8.63
2018-12-11T22:52:50.934Z,10.28
2018-12-11T22:55:21.169Z,10.00
2018-12-11T22:57:58.037Z,9.83
2018-12-11T23:00:28.145Z,10.23
2018-12-11T23:03:00.322Z,9.08
2018-12-11T23:05:30.471Z,9.78
2018-12-11T23:08:00.660Z,8.90
2018-12-11T23:10:30.901Z,8.60
2018-12-11T23:13:01.141Z,10.08
2018-12-11T23:15:31.461Z,9.90
2018-12-11T23:18:01.699Z,9.57
2018-12-11T23:20:31.899Z,10.15
2018-12-11T23:23:02.078Z,9.30
2018-12-11T23:25:32.226Z,9.23
2018-12-11T23:28:02.452Z,10.43
2018-12-11T23:30:32.728Z,9.28
2018-12-11T23:33:02.881Z,8.70
2018-12-11T23:35:33.056Z,9.48
2018-12-11T23:38:03.281Z,8.20
2018-12-11T23:40:33.777Z,9.28
2018-12-11T23:43:03.919Z,8.13
2018-12-11T23:45:34.120Z,8.58
2018-12-11T23:48:04.258Z,8.48
2018-12-11T23:50:34.445Z,7.80
2018-12-11T23:53:04.785Z,9.53
2018-12-11T23:55:34.920Z,9.17
2018-12-11T23:58:05.119Z,9.33
